Time;durP1;ratioP1;P1;durP2;ratioP2;P2;SDS_P1;SDS_P2;PMS_P1;PMS_P2;Temp;Humidity;BMP_temperature;BMP_pressure;BME280_temperature;BME280_humidity;BME280_pressure;Samples;Min_cycle;Max_cycle;Signal;HPM_P1;HPM_P2
2022/09/19 00:01:51;;;;;;;0.13;0.13;;;;;;;;;;6243290;23;20004;-75
2022/09/19 00:04:22;;;;;;;0.00;0.00;;;;;;;;;;6245151;22;20026;-75
2022/09/19 00:06:50;;;;;;;0.00;0.00;;;;;;;;;;6245150;22;20012;-75
2022/09/19 00:09:18;;;;;;;0.20;0.20;;;;;;;;;;6244786;22;20004;-75
2022/09/19 00:11:45;;;;;;;0.00;0.00;;;;;;;;;;6243872;23;20004;-75
2022/09/19 00:14:13;;;;;;;0.00;0.00;;;;;;;;;;6244991;22;20012;-75
2022/09/19 00:16:41;;;;;;;0.00;0.00;;;;;;;;;;6243446;23;20059;-75
2022/09/19 00:19:10;;;;;;;0.57;0.52;;;;;;;;;;6243871;23;20015;-75
2022/09/19 00:21:38;;;;;;;0.00;0.00;;;;;;;;;;6245406;23;20023;-75
2022/09/19 00:26:50;;;;;;;0.40;0.40;;;;;;;;;;6245080;23;20050;-75
2022/09/19 00:29:18;;;;;;;1.80;1.80;;;;;;;;;;6244921;23;20334;-75
2022/09/19 00:31:45;;;;;;;0.00;0.00;;;;;;;;;;6242339;23;20008;-75
2022/09/19 00:34:12;;;;;;;0.00;0.00;;;;;;;;;;6243554;23;20448;-78
2022/09/19 00:36:39;;;;;;;0.00;0.00;;;;;;;;;;6243074;23;20078;-78
2022/09/19 00:39:06;;;;;;;0.00;0.00;;;;;;;;;;6243217;22;20000;-78
2022/09/19 00:41:33;;;;;;;0.00;0.00;;;;;;;;;;6244675;23;20086;-79
2022/09/19 00:44:18;;;;;;;0.00;0.00;;;;;;;;;;6244053;22;20008;-78
2022/09/19 00:46:44;;;;;;;0.65;0.65;;;;;;;;;;6241415;23;20083;-79
2022/09/19 00:49:18;;;;;;;0.08;0.08;;;;;;;;;;6245542;23;20000;-79
2022/09/19 00:51:47;;;;;;;0.00;0.00;;;;;;;;;;6245274;22;20004;-79
2022/09/19 00:54:16;;;;;;;0.00;0.00;;;;;;;;;;6243648;23;20099;-78
2022/09/19 00:56:45;;;;;;;0.00;0.00;;;;;;;;;;6247690;23;20028;-78
2022/09/19 00:59:12;;;;;;;0.00;0.00;;;;;;;;;;6189200;23;20019;-79
2022/09/19 01:01:39;;;;;;;0.00;0.00;;;;;;;;;;6221399;23;20004;-79
2022/09/19 01:04:20;;;;;;;0.00;0.00;;;;;;;;;;6238920;23;19984;-77
2022/09/19 01:06:47;;;;;;;0.00;0.00;;;;;;;;;;6238974;23;20074;-77
2022/09/19 01:09:38;;;;;;;0.13;0.13;;;;;;;;;;6219130;23;20009;-78
2022/09/19 01:12:05;;;;;;;0.00;0.00;;;;;;;;;;6188678;23;20075;-79
2022/09/19 01:14:53;;;;;;;0.00;0.00;;;;;;;;;;6216100;23;20012;-79
2022/09/19 01:17:25;;;;;;;0.00;0.00;;;;;;;;;;6180328;22;20013;-78
2022/09/19 01:19:57;;;;;;;0.00;0.00;;;;;;;;;;6242481;23;19997;-79
2022/09/19 01:22:43;;;;;;;0.00;0.00;;;;;;;;;;6225240;23;20032;-79
2022/09/19 01:25:22;;;;;;;0.00;0.00;;;;;;;;;;6139532;23;20043;-79
2022/09/19 01:28:01;;;;;;;0.00;0.00;;;;;;;;;;6190833;23;20008;-79
2022/09/19 01:30:27;;;;;;;0.00;0.00;;;;;;;;;;6214157;23;20024;-80
2022/09/19 01:33:24;;;;;;;0.45;0.45;;;;;;;;;;6213779;23;20076;-79
2022/09/19 01:35:53;;;;;;;0.00;0.00;;;;;;;;;;6188063;23;20450;-80
2022/09/19 01:38:25;;;;;;;4.63;0.68;;;;;;;;;;6216605;23;20013;-78
2022/09/19 01:40:58;;;;;;;0.00;0.00;;;;;;;;;;6189729;23;20058;-78
2022/09/19 01:43:25;;;;;;;0.08;0.08;;;;;;;;;;6189809;23;20024;-77
2022/09/19 01:45:55;;;;;;;0.00;0.00;;;;;;;;;;6189697;23;20013;-76
2022/09/19 01:48:37;;;;;;;0.00;0.00;;;;;;;;;;6216249;23;20133;-80
2022/09/19 01:51:14;;;;;;;0.00;0.00;;;;;;;;;;6189710;23;20318;-75
2022/09/19 01:54:00;;;;;;;0.00;0.00;;;;;;;;;;6215807;23;20000;-75
2022/09/19 01:56:36;;;;;;;0.00;0.00;;;;;;;;;;6215458;23;20000;-75
2022/09/19 01:59:35;;;;;;;0.00;0.00;;;;;;;;;;6244982;23;20035;-75
2022/09/19 02:02:22;;;;;;;0.00;0.00;;;;;;;;;;6161658;23;20103;-75
2022/09/19 02:04:56;;;;;;;0.10;0.10;;;;;;;;;;6244734;23;20008;-75
2022/09/19 02:07:29;;;;;;;0.00;0.00;;;;;;;;;;6244340;23;20437;-75
2022/09/19 02:09:55;;;;;;;0.00;0.00;;;;;;;;;;6244050;23;20020;-73
2022/09/19 02:12:25;;;;;;;0.00;0.00;;;;;;;;;;6244042;23;20087;-74
2022/09/19 02:14:54;;;;;;;0.00;0.00;;;;;;;;;;6243639;23;20008;-75
2022/09/19 02:17:32;;;;;;;0.38;0.38;;;;;;;;;;6244568;22;20322;-73
2022/09/19 02:20:07;;;;;;;1.85;1.85;;;;;;;;;;6243388;23;20038;-74
2022/09/19 02:22:37;;;;;;;0.00;0.00;;;;;;;;;;6244128;22;20027;-73
2022/09/19 02:25:05;;;;;;;0.65;0.65;;;;;;;;;;6244516;23;20077;-72
2022/09/19 02:27:37;;;;;;;0.00;0.00;;;;;;;;;;6243216;22;20027;-73
2022/09/19 02:30:08;;;;;;;0.13;0.13;;;;;;;;;;6243608;23;20429;-73
2022/09/19 02:32:35;;;;;;;0.00;0.00;;;;;;;;;;6243118;22;20000;-74
2022/09/19 02:35:02;;;;;;;0.00;0.00;;;;;;;;;;6239925;23;20437;-75
2022/09/19 02:37:41;;;;;;;0.00;0.00;;;;;;;;;;6243793;23;20001;-74
2022/09/19 02:40:23;;;;;;;0.00;0.00;;;;;;;;;;6240548;23;20011;-74
2022/09/19 02:42:56;;;;;;;0.00;0.00;;;;;;;;;;6242497;22;20007;-74
2022/09/19 02:45:26;;;;;;;0.00;0.00;;;;;;;;;;6239966;22;20000;-74
2022/09/19 02:47:58;;;;;;;0.45;0.45;;;;;;;;;;6243646;22;20098;-75
2022/09/19 02:50:30;;;;;;;0.47;0.47;;;;;;;;;;6241819;22;20004;-75
2022/09/19 02:52:59;;;;;;;0.00;0.00;;;;;;;;;;6240269;23;20012;-74
2022/09/19 02:55:30;;;;;;;0.00;0.00;;;;;;;;;;6241988;23;20004;-76
2022/09/19 02:57:59;;;;;;;0.20;0.20;;;;;;;;;;6242275;23;20040;-74
2022/09/19 03:00:26;;;;;;;10.68;9.55;;;;;;;;;;6239969;23;20099;-74
2022/09/19 03:02:56;;;;;;;0.15;0.15;;;;;;;;;;6238511;23;20092;-75
2022/09/19 03:05:25;;;;;;;1.42;1.42;;;;;;;;;;6242310;22;20023;-74
2022/09/19 03:08:06;;;;;;;7.40;4.35;;;;;;;;;;6242703;22;20062;-74
2022/09/19 03:10:36;;;;;;;0.65;0.65;;;;;;;;;;6243201;22;20028;-73
2022/09/19 03:13:05;;;;;;;5.53;4.22;;;;;;;;;;6242367;23;20008;-74
2022/09/19 03:15:37;;;;;;;2.42;2.33;;;;;;;;;;6244884;23;20004;-73
2022/09/19 03:18:06;;;;;;;6.68;2.25;;;;;;;;;;6244975;22;20333;-74
2022/09/19 03:20:36;;;;;;;5.35;4.95;;;;;;;;;;6242077;23;20091;-72
2022/09/19 03:23:04;;;;;;;0.20;0.20;;;;;;;;;;6243036;23;20353;-73
2022/09/19 03:25:30;;;;;;;2.15;1.77;;;;;;;;;;6243079;23;20019;-74
2022/09/19 03:27:57;;;;;;;0.98;0.98;;;;;;;;;;6244970;22;20409;-74
2022/09/19 03:30:24;;;;;;;2.72;2.55;;;;;;;;;;6243194;23;20441;-73
2022/09/19 03:32:51;;;;;;;0.30;0.30;;;;;;;;;;6241133;23;20050;-74
2022/09/19 03:35:17;;;;;;;0.50;0.45;;;;;;;;;;6243151;23;20004;-73
2022/09/19 03:37:44;;;;;;;12.73;4.90;;;;;;;;;;6242570;23;20015;-74
2022/09/19 03:40:11;;;;;;;0.00;0.00;;;;;;;;;;6244236;22;20000;-75
2022/09/19 03:42:37;;;;;;;6.95;1.35;;;;;;;;;;6244563;22;20011;-76
2022/09/19 03:45:05;;;;;;;7.70;3.55;;;;;;;;;;6242035;23;20000;-76
2022/09/19 03:47:32;;;;;;;3.20;3.00;;;;;;;;;;6240830;23;20004;-74
2022/09/19 03:49:58;;;;;;;0.00;0.00;;;;;;;;;;6241218;22;20015;-77
2022/09/19 03:52:28;;;;;;;1.33;0.95;;;;;;;;;;6243204;22;20075;-75
2022/09/19 03:54:56;;;;;;;0.93;0.55;;;;;;;;;;6243622;22;20005;-74
2022/09/19 03:57:22;;;;;;;3.50;2.50;;;;;;;;;;6243136;22;20384;-74
2022/09/19 03:59:49;;;;;;;1.27;0.98;;;;;;;;;;6242005;23;20071;-73
2022/09/19 04:02:15;;;;;;;0.95;0.95;;;;;;;;;;6240790;23;20067;-75
2022/09/19 04:04:41;;;;;;;0.00;0.00;;;;;;;;;;6238244;23;20003;-76
2022/09/19 04:07:08;;;;;;;1.35;1.35;;;;;;;;;;6243148;23;20015;-76
2022/09/19 04:09:34;;;;;;;5.93;5.43;;;;;;;;;;6242319;23;20011;-75
2022/09/19 04:12:10;;;;;;;0.20;0.20;;;;;;;;;;6243575;23;20507;-74
2022/09/19 04:14:36;;;;;;;0.00;0.00;;;;;;;;;;6243090;22;20486;-75
2022/09/19 04:17:07;;;;;;;1.70;1.58;;;;;;;;;;6243760;22;20095;-75
2022/09/19 04:19:33;;;;;;;0.10;0.10;;;;;;;;;;6239699;22;20008;-75
2022/09/19 04:22:02;;;;;;;0.00;0.00;;;;;;;;;;6240787;22;20008;-76
2022/09/19 04:24:43;;;;;;;0.00;0.00;;;;;;;;;;6241166;23;20000;-76
2022/09/19 04:27:23;;;;;;;0.15;0.15;;;;;;;;;;6240891;22;20008;-78
2022/09/19 04:29:56;;;;;;;0.00;0.00;;;;;;;;;;6240637;22;20022;-75
2022/09/19 04:32:26;;;;;;;2.08;1.98;;;;;;;;;;6230310;23;20012;-76
2022/09/19 04:34:55;;;;;;;2.60;2.35;;;;;;;;;;6240992;23;20417;-78
2022/09/19 04:37:24;;;;;;;0.32;0.32;;;;;;;;;;6242690;22;20008;-75
2022/09/19 04:39:52;;;;;;;0.20;0.20;;;;;;;;;;6240338;22;20000;-76
2022/09/19 04:42:22;;;;;;;0.25;0.25;;;;;;;;;;6242878;22;20011;-76
2022/09/19 04:44:53;;;;;;;0.73;0.73;;;;;;;;;;6241003;22;20111;-76
2022/09/19 04:47:20;;;;;;;0.00;0.00;;;;;;;;;;6241280;23;20008;-77
2022/09/19 04:49:48;;;;;;;8.40;2.20;;;;;;;;;;6242096;23;20012;-78
2022/09/19 04:52:18;;;;;;;6.32;2.63;;;;;;;;;;6239365;23;20004;-77
2022/09/19 04:54:47;;;;;;;2.63;2.53;;;;;;;;;;6240568;23;20009;-77
2022/09/19 04:57:19;;;;;;;3.72;3.53;;;;;;;;;;6215269;23;20108;-79
2022/09/19 04:59:50;;;;;;;0.65;0.65;;;;;;;;;;6241543;23;20004;-78
2022/09/19 05:02:18;;;;;;;0.03;0.03;;;;;;;;;;6243515;22;20000;-77
2022/09/19 05:04:59;;;;;;;5.45;0.63;;;;;;;;;;6243649;22;20004;-76
2022/09/19 05:07:33;;;;;;;0.08;0.05;;;;;;;;;;6243359;23;20031;-75
2022/09/19 05:10:01;;;;;;;5.03;2.33;;;;;;;;;;6244031;23;20453;-76
2022/09/19 05:12:36;;;;;;;10.90;6.10;;;;;;;;;;6242253;23;20011;-76
2022/09/19 05:15:06;;;;;;;11.18;2.28;;;;;;;;;;6244467;23;20004;-75
2022/09/19 05:17:33;;;;;;;4.40;1.85;;;;;;;;;;6218135;23;20016;-75
2022/09/19 05:20:00;;;;;;;2.20;2.10;;;;;;;;;;6243189;23;20027;-76
2022/09/19 05:22:29;;;;;;;0.00;0.00;;;;;;;;;;6244816;23;20023;-74
2022/09/19 05:25:00;;;;;;;4.20;2.85;;;;;;;;;;6242101;23;20015;-74
2022/09/19 05:27:27;;;;;;;1.98;0.65;;;;;;;;;;6240721;23;20012;-75
2022/09/19 05:29:55;;;;;;;0.35;0.35;;;;;;;;;;6240228;23;20028;-77
2022/09/19 05:32:22;;;;;;;0.28;0.28;;;;;;;;;;6242417;23;20407;-76
2022/09/19 05:34:48;;;;;;;26.77;15.00;;;;;;;;;;6241978;23;20035;-76
2022/09/19 05:37:14;;;;;;;0.70;0.68;;;;;;;;;;6244704;23;20618;-76
2022/09/19 05:39:41;;;;;;;0.00;0.00;;;;;;;;;;6244188;23;20012;-76
2022/09/19 05:42:08;;;;;;;5.88;2.15;;;;;;;;;;6242955;23;20088;-75
2022/09/19 05:44:35;;;;;;;0.03;0.03;;;;;;;;;;6245772;22;20000;-75
2022/09/19 05:47:01;;;;;;;0.00;0.00;;;;;;;;;;6243262;23;20016;-73
2022/09/19 05:49:27;;;;;;;0.00;0.00;;;;;;;;;;6245005;23;20000;-73
2022/09/19 05:53:51;;;;;;;0.73;0.73;;;;;;;;;;6244616;23;20054;-75
2022/09/19 05:54:40;;;;;;;0.30;0.30;;;;;;;;;;6245529;23;20020;-74
2022/09/19 05:57:06;;;;;;;1.45;0.40;;;;;;;;;;6245099;23;20018;-73
2022/09/19 05:59:33;;;;;;;0.32;0.32;;;;;;;;;;6243142;23;20028;-72
2022/09/19 06:02:01;;;;;;;2.83;0.93;;;;;;;;;;6244582;22;20008;-75
2022/09/19 06:04:27;;;;;;;2.50;2.33;;;;;;;;;;6242457;23;20004;-74
2022/09/19 06:06:56;;;;;;;0.00;0.00;;;;;;;;;;6245267;23;20091;-75
2022/09/19 06:09:24;;;;;;;0.00;0.00;;;;;;;;;;6242995;23;20007;-74
2022/09/19 06:11:51;;;;;;;0.00;0.00;;;;;;;;;;6243385;22;20011;-75
2022/09/19 06:14:23;;;;;;;5.22;1.23;;;;;;;;;;6243139;23;20066;-75
2022/09/19 06:16:50;;;;;;;0.20;0.20;;;;;;;;;;6242359;23;20093;-75
2022/09/19 06:19:16;;;;;;;5.30;4.15;;;;;;;;;;6242710;23;20004;-75
2022/09/19 06:21:43;;;;;;;8.10;4.55;;;;;;;;;;6241444;22;20004;-74
2022/09/19 06:24:10;;;;;;;0.82;0.82;;;;;;;;;;6243407;23;20463;-74
2022/09/19 06:26:36;;;;;;;1.20;0.80;;;;;;;;;;6242478;23;20008;-76
2022/09/19 06:29:03;;;;;;;3.40;2.55;;;;;;;;;;6241928;23;20000;-79
2022/09/19 06:31:30;;;;;;;0.00;0.00;;;;;;;;;;6240707;23;20011;-74
2022/09/19 06:33:57;;;;;;;1.52;1.27;;;;;;;;;;6243170;22;19996;-74
2022/09/19 06:36:23;;;;;;;0.00;0.00;;;;;;;;;;6243576;22;20000;-75
2022/09/19 06:38:49;;;;;;;0.20;0.20;;;;;;;;;;6243174;23;20413;-75
2022/09/19 06:41:16;;;;;;;0.00;0.00;;;;;;;;;;6244555;23;20078;-74
2022/09/19 06:43:43;;;;;;;1.33;0.85;;;;;;;;;;6244141;23;20030;-74
2022/09/19 06:46:10;;;;;;;7.50;7.03;;;;;;;;;;6243049;22;20000;-77
2022/09/19 06:48:36;;;;;;;0.32;0.28;;;;;;;;;;6241363;23;20451;-76
2022/09/19 06:51:03;;;;;;;1.75;1.27;;;;;;;;;;6241535;23;20425;-74
2022/09/19 06:58:42;;;;;;;1.65;0.82;;;;;;;;;;6225291;22;20024;-75
2022/09/19 07:01:08;;;;;;;0.00;0.00;;;;;;;;;;6239297;23;20008;-75
2022/09/19 07:03:35;;;;;;;40.95;17.17;;;;;;;;;;6241208;22;20004;-74
2022/09/19 07:06:01;;;;;;;0.55;0.55;;;;;;;;;;6242093;23;20008;-76
2022/09/19 07:08:28;;;;;;;1.10;1.00;;;;;;;;;;6241225;23;20079;-78
2022/09/19 07:10:56;;;;;;;0.35;0.35;;;;;;;;;;6240709;23;20012;-76
2022/09/19 07:13:23;;;;;;;0.75;0.43;;;;;;;;;;6241670;23;20027;-75
2022/09/19 07:15:49;;;;;;;2.72;2.08;;;;;;;;;;6240476;23;20046;-74
2022/09/19 07:18:15;;;;;;;0.98;0.90;;;;;;;;;;6239000;23;20012;-75
2022/09/19 07:20:42;;;;;;;0.20;0.20;;;;;;;;;;6240674;22;20067;-73
2022/09/19 07:23:13;;;;;;;2.65;0.93;;;;;;;;;;6240933;23;20182;-74
2022/09/19 07:25:40;;;;;;;0.82;0.82;;;;;;;;;;6239577;23;20436;-74
2022/09/19 07:28:07;;;;;;;0.30;0.30;;;;;;;;;;6243135;22;20483;-73
2022/09/19 07:30:34;;;;;;;5.28;2.13;;;;;;;;;;6243981;23;20084;-73
2022/09/19 07:33:01;;;;;;;0.00;0.00;;;;;;;;;;6239675;23;20091;-75
2022/09/19 07:35:28;;;;;;;1.38;1.35;;;;;;;;;;6240893;23;20039;-75
2022/09/19 07:37:58;;;;;;;0.70;0.50;;;;;;;;;;6243502;22;20000;-74
2022/09/19 07:40:24;;;;;;;0.47;0.47;;;;;;;;;;6244227;23;20024;-73
2022/09/19 07:42:51;;;;;;;0.00;0.00;;;;;;;;;;6243540;22;20003;-73
2022/09/19 07:45:18;;;;;;;0.00;0.00;;;;;;;;;;6243805;22;20004;-74
2022/09/19 07:47:48;;;;;;;0.30;0.22;;;;;;;;;;6245211;22;20075;-75
2022/09/19 07:50:16;;;;;;;3.40;0.70;;;;;;;;;;6240031;23;20035;-76
2022/09/19 07:52:46;;;;;;;1.33;1.23;;;;;;;;;;6243372;22;20004;-76
2022/09/19 07:55:13;;;;;;;1.50;1.48;;;;;;;;;;6241419;23;20039;-75
2022/09/19 07:57:40;;;;;;;1.00;0.98;;;;;;;;;;6237963;22;20020;-74
2022/09/19 08:00:07;;;;;;;0.63;0.50;;;;;;;;;;6241641;22;20347;-74
2022/09/19 08:02:33;;;;;;;1.17;1.17;;;;;;;;;;6242156;22;19996;-74
2022/09/19 08:05:00;;;;;;;6.93;2.05;;;;;;;;;;6242254;22;20008;-75
2022/09/19 08:07:26;;;;;;;7.25;1.08;;;;;;;;;;6243589;22;20472;-74
2022/09/19 08:09:53;;;;;;;7.55;1.88;;;;;;;;;;6242157;23;20432;-75
2022/09/19 08:12:19;;;;;;;1.20;1.10;;;;;;;;;;6239848;23;20045;-75
2022/09/19 08:14:46;;;;;;;0.47;0.32;;;;;;;;;;6239673;23;20041;-74
2022/09/19 08:17:12;;;;;;;0.00;0.00;;;;;;;;;;6241480;23;20087;-76
2022/09/19 08:19:39;;;;;;;0.60;0.38;;;;;;;;;;6241165;23;20373;-76
2022/09/19 08:22:05;;;;;;;0.43;0.43;;;;;;;;;;6243213;22;19996;-74
2022/09/19 08:24:32;;;;;;;5.10;4.82;;;;;;;;;;6243932;23;20423;-74
2022/09/19 08:26:58;;;;;;;3.13;2.92;;;;;;;;;;6241455;23;20091;-74
2022/09/19 08:29:26;;;;;;;1.40;0.82;;;;;;;;;;6243286;22;20004;-76
2022/09/19 08:31:53;;;;;;;0.13;0.13;;;;;;;;;;6244274;22;20429;-76
2022/09/19 08:34:19;;;;;;;1.27;0.82;;;;;;;;;;6242823;23;20034;-75
2022/09/19 08:36:45;;;;;;;2.88;0.43;;;;;;;;;;6242484;23;20004;-76
2022/09/19 08:39:12;;;;;;;0.52;0.52;;;;;;;;;;6239223;23;20004;-76
2022/09/19 08:42:06;;;;;;;0.30;0.30;;;;;;;;;;6240291;23;20493;-76
2022/09/19 08:44:42;;;;;;;0.00;0.00;;;;;;;;;;6242235;23;20004;-74
2022/09/19 08:47:13;;;;;;;0.10;0.10;;;;;;;;;;6242476;23;20101;-73
2022/09/19 08:49:43;;;;;;;0.00;0.00;;;;;;;;;;6235086;23;20008;-74
2022/09/19 08:52:17;;;;;;;3.05;2.88;;;;;;;;;;6240632;23;20107;-74
2022/09/19 08:54:47;;;;;;;5.53;2.15;;;;;;;;;;6241691;22;20008;-76
2022/09/19 08:57:26;;;;;;;0.30;0.30;;;;;;;;;;6241076;22;20047;-76
2022/09/19 08:59:56;;;;;;;1.60;1.50;;;;;;;;;;6240976;22;20443;-74
2022/09/19 09:02:28;;;;;;;1.42;1.33;;;;;;;;;;6242134;22;20408;-74
2022/09/19 09:04:54;;;;;;;2.08;0.85;;;;;;;;;;6242309;23;20008;-74
2022/09/19 09:07:30;;;;;;;0.00;0.00;;;;;;;;;;6241786;22;20009;-74
2022/09/19 09:10:12;;;;;;;0.00;0.00;;;;;;;;;;6243704;22;20004;-74
2022/09/19 09:12:53;;;;;;;11.75;2.65;;;;;;;;;;6241625;23;20444;-75
2022/09/19 09:15:23;;;;;;;1.55;1.45;;;;;;;;;;6241741;23;20012;-75
2022/09/19 09:17:59;;;;;;;3.35;3.05;;;;;;;;;;6244854;22;20149;-74
2022/09/19 09:20:44;;;;;;;0.45;0.45;;;;;;;;;;6241596;23;20027;-74
2022/09/19 09:23:16;;;;;;;16.45;12.57;;;;;;;;;;6240868;23;20466;-74
2022/09/19 09:25:47;;;;;;;2.10;1.15;;;;;;;;;;6243166;22;20027;-74
2022/09/19 09:28:28;;;;;;;2.90;1.10;;;;;;;;;;6243606;22;20004;-74
2022/09/19 09:31:02;;;;;;;2.28;2.08;;;;;;;;;;6242857;23;20436;-76
2022/09/19 09:33:30;;;;;;;1.00;0.90;;;;;;;;;;6240819;23;20008;-77
2022/09/19 09:36:06;;;;;;;0.00;0.00;;;;;;;;;;6243891;22;20000;-75
2022/09/19 09:38:48;;;;;;;0.40;0.38;;;;;;;;;;6241860;23;20071;-74
2022/09/19 09:44:08;;;;;;;0.00;0.00;;;;;;;;;;6242562;23;20042;-74
2022/09/19 09:46:58;;;;;;;1.88;1.77;;;;;;;;;;6242053;22;19997;-74
2022/09/19 09:49:31;;;;;;;0.10;0.10;;;;;;;;;;6187137;22;20004;-74
2022/09/19 09:52:27;;;;;;;0.00;0.00;;;;;;;;;;6241187;23;20015;-74
2022/09/19 09:58:26;;;;;;;0.60;0.60;;;;;;;;;;6244210;22;20026;-77
2022/09/19 10:04:12;;;;;;;0.00;0.00;;;;;;;;;;6244143;23;20471;-76
2022/09/19 10:06:42;;;;;;;0.10;0.10;;;;;;;;;;6243461;23;20491;-76
2022/09/19 10:09:21;;;;;;;1.58;1.48;;;;;;;;;;6245330;22;20376;-73
2022/09/19 10:11:56;;;;;;;0.05;0.05;;;;;;;;;;6245642;22;20003;-74
2022/09/19 10:14:25;;;;;;;0.10;0.10;;;;;;;;;;6240786;23;20050;-72
2022/09/19 10:16:56;;;;;;;1.42;1.33;;;;;;;;;;6243838;22;20058;-72
2022/09/19 10:19:25;;;;;;;0.43;0.35;;;;;;;;;;6242361;22;20094;-74
2022/09/19 10:21:52;;;;;;;1.05;0.32;;;;;;;;;;6244087;22;20039;-74
2022/09/19 10:24:40;;;;;;;0.73;0.73;;;;;;;;;;6245366;22;20004;-75
2022/09/19 10:27:13;;;;;;;0.00;0.00;;;;;;;;;;6242482;23;20016;-77
2022/09/19 10:29:51;;;;;;;0.20;0.20;;;;;;;;;;6243530;23;20010;-73
2022/09/19 10:32:23;;;;;;;0.00;0.00;;;;;;;;;;6243412;22;20023;-73
2022/09/19 10:34:50;;;;;;;0.00;0.00;;;;;;;;;;6244797;22;20093;-74
2022/09/19 10:37:18;;;;;;;0.00;0.00;;;;;;;;;;6242406;23;20031;-73
2022/09/19 10:39:48;;;;;;;0.00;0.00;;;;;;;;;;6241310;23;20051;-72
2022/09/19 10:42:41;;;;;;;0.00;0.00;;;;;;;;;;6243421;22;20000;-72
2022/09/19 10:45:19;;;;;;;0.05;0.05;;;;;;;;;;6234683;23;20079;-72
2022/09/19 10:47:47;;;;;;;0.00;0.00;;;;;;;;;;6241474;23;20036;-73
2022/09/19 10:50:16;;;;;;;0.00;0.00;;;;;;;;;;6241842;22;20028;-73
2022/09/19 10:52:44;;;;;;;0.10;0.10;;;;;;;;;;6241768;23;20030;-73
2022/09/19 10:55:23;;;;;;;1.17;1.13;;;;;;;;;;6243409;22;20075;-72
2022/09/19 10:57:59;;;;;;;0.00;0.00;;;;;;;;;;6238669;22;20020;-74
2022/09/19 11:00:27;;;;;;;0.00;0.00;;;;;;;;;;6240368;22;20050;-74
2022/09/19 11:03:15;;;;;;;0.00;0.00;;;;;;;;;;6242227;23;20011;-74
2022/09/19 11:05:42;;;;;;;0.82;0.82;;;;;;;;;;6244201;22;20328;-72
2022/09/19 11:08:25;;;;;;;4.47;4.13;;;;;;;;;;6242755;22;20015;-75
2022/09/19 11:10:51;;;;;;;0.00;0.00;;;;;;;;;;6241932;23;20039;-73
2022/09/19 11:13:22;;;;;;;0.00;0.00;;;;;;;;;;6241128;23;20415;-75
2022/09/19 11:16:07;;;;;;;0.00;0.00;;;;;;;;;;6241047;22;20477;-75
2022/09/19 11:18:49;;;;;;;0.10;0.10;;;;;;;;;;6242274;23;20027;-74
2022/09/19 11:21:27;;;;;;;0.00;0.00;;;;;;;;;;6240698;23;20030;-74
2022/09/19 11:23:58;;;;;;;0.00;0.00;;;;;;;;;;6245198;22;20000;-75
2022/09/19 11:26:25;;;;;;;0.03;0.03;;;;;;;;;;6241696;23;20004;-73
2022/09/19 11:29:07;;;;;;;0.52;0.52;;;;;;;;;;6242574;23;20513;-77
2022/09/19 11:31:47;;;;;;;0.00;0.00;;;;;;;;;;6242611;23;20008;-74
2022/09/19 11:34:24;;;;;;;0.45;0.45;;;;;;;;;;6243186;22;20008;-75
2022/09/19 11:36:51;;;;;;;0.00;0.00;;;;;;;;;;6243884;23;20012;-76
2022/09/19 11:39:26;;;;;;;0.57;0.43;;;;;;;;;;6240606;23;20023;-76
2022/09/19 11:41:52;;;;;;;0.00;0.00;;;;;;;;;;6240366;23;20047;-78
2022/09/19 11:44:43;;;;;;;0.10;0.10;;;;;;;;;;6243609;23;20356;-77
2022/09/19 11:47:22;;;;;;;0.00;0.00;;;;;;;;;;6220221;23;20091;-75
2022/09/19 11:49:59;;;;;;;0.00;0.00;;;;;;;;;;6241518;22;20784;-77
2022/09/19 11:52:28;;;;;;;0.00;0.00;;;;;;;;;;6241482;23;20004;-74
2022/09/19 11:55:03;;;;;;;0.00;0.00;;;;;;;;;;6242763;23;20000;-75
2022/09/19 11:57:47;;;;;;;0.00;0.00;;;;;;;;;;6241686;22;20035;-75
2022/09/19 12:00:13;;;;;;;0.13;0.13;;;;;;;;;;6241376;22;20195;-72
2022/09/19 12:03:19;;;;;;;0.00;0.00;;;;;;;;;;6240616;23;20381;-75
2022/09/19 12:05:52;;;;;;;0.28;0.28;;;;;;;;;;6236447;23;20015;-72
2022/09/19 12:08:45;;;;;;;0.00;0.00;;;;;;;;;;6241893;22;20058;-74
2022/09/19 12:11:30;;;;;;;0.00;0.00;;;;;;;;;;6240150;22;20014;-75
2022/09/19 12:14:04;;;;;;;0.00;0.00;;;;;;;;;;6242818;23;20004;-74
2022/09/19 12:16:40;;;;;;;0.00;0.00;;;;;;;;;;6243217;22;20024;-76
2022/09/19 12:19:10;;;;;;;0.00;0.00;;;;;;;;;;6242678;23;20111;-76
2022/09/19 12:21:40;;;;;;;0.00;0.00;;;;;;;;;;6241647;22;20335;-76
2022/09/19 12:27:35;;;;;;;0.00;0.00;;;;;;;;;;6243292;23;20018;-76
2022/09/19 12:30:05;;;;;;;0.00;0.00;;;;;;;;;;6095982;23;20042;-75
2022/09/19 12:32:32;;;;;;;0.00;0.00;;;;;;;;;;6120558;23;20099;-76
2022/09/19 12:35:18;;;;;;;0.00;0.00;;;;;;;;;;6182609;22;20462;-76
2022/09/19 12:37:48;;;;;;;0.20;0.20;;;;;;;;;;6240871;23;20317;-76
2022/09/19 12:40:33;;;;;;;0.00;0.00;;;;;;;;;;6241053;23;20485;-76
2022/09/19 12:43:10;;;;;;;1.17;1.17;;;;;;;;;;6239991;23;20008;-75
2022/09/19 12:45:53;;;;;;;0.00;0.00;;;;;;;;;;6241548;22;20012;-75
2022/09/19 12:48:28;;;;;;;0.00;0.00;;;;;;;;;;6241953;22;20015;-76
2022/09/19 12:50:58;;;;;;;0.00;0.00;;;;;;;;;;6241423;23;20062;-76
2022/09/19 12:53:28;;;;;;;0.00;0.00;;;;;;;;;;6242920;22;20004;-77
2022/09/19 12:56:13;;;;;;;0.00;0.00;;;;;;;;;;6241838;23;20008;-76
2022/09/19 12:58:54;;;;;;;0.52;0.52;;;;;;;;;;6243494;22;20087;-76
2022/09/19 13:01:24;;;;;;;0.00;0.00;;;;;;;;;;6242218;23;20390;-76
2022/09/19 13:03:59;;;;;;;0.00;0.00;;;;;;;;;;6240045;23;20431;-77
2022/09/19 13:06:30;;;;;;;0.00;0.00;;;;;;;;;;6241766;22;20317;-77
2022/09/19 13:08:58;;;;;;;0.22;0.22;;;;;;;;;;6244235;22;20000;-76
2022/09/19 13:11:34;;;;;;;0.00;0.00;;;;;;;;;;6242569;23;20008;-77
2022/09/19 13:14:22;;;;;;;0.00;0.00;;;;;;;;;;6244056;22;20004;-76
2022/09/19 13:25:20;;;;;;;0.00;0.00;;;;;;;;;;6243021;23;20015;-75
2022/09/19 13:27:46;;;;;;;0.00;0.00;;;;;;;;;;6242997;23;20008;-75
2022/09/19 13:30:31;;;;;;;0.00;0.00;;;;;;;;;;6242502;23;20086;-75
2022/09/19 13:32:58;;;;;;;0.08;0.08;;;;;;;;;;6245193;23;20004;-75
2022/09/19 13:35:25;;;;;;;0.00;0.00;;;;;;;;;;6246065;23;20071;-76
2022/09/19 13:37:53;;;;;;;0.00;0.00;;;;;;;;;;6246344;22;20007;-75
2022/09/19 13:40:21;;;;;;;0.00;0.00;;;;;;;;;;6245014;23;20332;-76
2022/09/19 13:43:06;;;;;;;0.00;0.00;;;;;;;;;;6243164;23;20008;-75
2022/09/19 13:45:51;;;;;;;0.00;0.00;;;;;;;;;;6247034;23;20075;-75
2022/09/19 13:48:26;;;;;;;0.00;0.00;;;;;;;;;;6246442;23;20451;-75
2022/09/19 13:51:00;;;;;;;0.00;0.00;;;;;;;;;;6246105;23;20083;-74
2022/09/19 13:53:33;;;;;;;0.17;0.17;;;;;;;;;;6245715;22;20004;-75
2022/09/19 13:56:00;;;;;;;0.15;0.15;;;;;;;;;;6244265;23;20428;-75
2022/09/19 13:58:32;;;;;;;0.00;0.00;;;;;;;;;;6246292;22;20012;-75
2022/09/19 14:01:07;;;;;;;0.00;0.00;;;;;;;;;;6244625;23;20014;-75
2022/09/19 14:03:36;;;;;;;0.00;0.00;;;;;;;;;;6246479;22;19997;-75
2022/09/19 14:06:20;;;;;;;0.43;0.43;;;;;;;;;;6246540;23;20003;-74
2022/09/19 14:08:47;;;;;;;0.00;0.00;;;;;;;;;;6245567;22;20103;-74
2022/09/19 14:11:18;;;;;;;20.15;18.10;;;;;;;;;;6245871;23;20008;-75
2022/09/19 14:13:45;;;;;;;0.35;0.35;;;;;;;;;;6246324;22;20490;-75
2022/09/19 14:16:30;;;;;;;1.77;1.75;;;;;;;;;;6245250;22;20062;-74
2022/09/19 14:18:57;;;;;;;0.00;0.00;;;;;;;;;;6245414;22;20000;-73
2022/09/19 14:21:27;;;;;;;0.05;0.05;;;;;;;;;;6244528;22;20058;-74
2022/09/19 14:24:00;;;;;;;0.70;0.70;;;;;;;;;;6243319;23;20004;-75
2022/09/19 14:26:45;;;;;;;0.52;0.52;;;;;;;;;;6241246;23;20458;-75
2022/09/19 14:29:32;;;;;;;1.13;1.13;;;;;;;;;;6244969;22;20047;-75
2022/09/19 14:32:07;;;;;;;0.00;0.00;;;;;;;;;;6217843;23;20495;-75
2022/09/19 14:34:54;;;;;;;12.88;6.07;;;;;;;;;;6244029;23;20096;-75
2022/09/19 14:37:30;;;;;;;0.00;0.00;;;;;;;;;;6245817;22;20006;-74
2022/09/19 14:40:03;;;;;;;0.00;0.00;;;;;;;;;;6245146;23;20079;-74
2022/09/19 14:42:41;;;;;;;0.10;0.10;;;;;;;;;;6241195;23;20027;-74
2022/09/19 14:45:14;;;;;;;0.00;0.00;;;;;;;;;;6244852;23;20444;-74
2022/09/19 14:47:43;;;;;;;0.00;0.00;;;;;;;;;;6245250;22;20000;-75
2022/09/19 14:50:26;;;;;;;0.00;0.00;;;;;;;;;;6242537;23;20028;-75
2022/09/19 14:52:59;;;;;;;0.00;0.00;;;;;;;;;;6245035;23;20004;-75
2022/09/19 14:55:29;;;;;;;0.00;0.00;;;;;;;;;;6243004;23;20035;-75
2022/09/19 14:57:59;;;;;;;0.15;0.10;;;;;;;;;;6243119;22;20012;-74
2022/09/19 15:00:31;;;;;;;0.00;0.00;;;;;;;;;;6245598;22;20024;-75
2022/09/19 15:02:58;;;;;;;0.22;0.22;;;;;;;;;;6242351;23;20454;-75
2022/09/19 15:05:24;;;;;;;0.00;0.00;;;;;;;;;;6244161;23;20015;-73
2022/09/19 15:07:51;;;;;;;0.10;0.10;;;;;;;;;;6245388;23;20005;-75
2022/09/19 15:10:30;;;;;;;0.00;0.00;;;;;;;;;;6244514;23;20078;-74
2022/09/19 15:13:18;;;;;;;0.13;0.13;;;;;;;;;;6244378;23;20087;-75
2022/09/19 15:15:52;;;;;;;0.00;0.00;;;;;;;;;;6245696;22;20091;-75
2022/09/19 15:18:23;;;;;;;0.00;0.00;;;;;;;;;;6245072;23;20056;-75
2022/09/19 15:20:53;;;;;;;0.00;0.00;;;;;;;;;;6246065;22;20005;-75
2022/09/19 15:23:20;;;;;;;0.00;0.00;;;;;;;;;;6246146;23;20056;-75
2022/09/19 15:25:47;;;;;;;0.05;0.05;;;;;;;;;;6244524;23;20004;-75
2022/09/19 15:28:31;;;;;;;0.00;0.00;;;;;;;;;;6244554;23;20004;-76
2022/09/19 15:31:01;;;;;;;0.00;0.00;;;;;;;;;;6246092;22;20023;-74
2022/09/19 15:33:28;;;;;;;0.00;0.00;;;;;;;;;;6245994;22;20000;-76
2022/09/19 15:35:58;;;;;;;0.00;0.00;;;;;;;;;;6244399;23;20004;-75
2022/09/19 15:38:29;;;;;;;0.35;0.35;;;;;;;;;;6244145;23;20030;-75
2022/09/19 15:40:57;;;;;;;0.00;0.00;;;;;;;;;;6245628;22;20328;-74